Terminal Aerodrome Forecast
Issued by NWS Sioux Falls, SD

Home | Current Version | Previous Version | Graphics & Text | Print | Product List | Glossary Off
Versions: 1 2 3 4 5 6 7 8 9 10 11 12 13 14 15 16 17 18 19 20 21

987
FTUS43 KFSD 091730
TAFHON
TAF
KHON 091730Z 0918/1018 35011KT P6SM OVC070
     FM100000 VRB04KT P6SM OVC070
     FM101000 13007KT 4SM -SN OVC030
      TEMPO 1012/1015 2SM -SN OVC015
     FM101600 14013KT 4SM BR OVC015=

USA.gov is the U.S. government's official web portal to all federal, state and local government web resources and services.